Time;durP1;ratioP1;P1;durP2;ratioP2;P2;SDS_P1;SDS_P2;PMS_P1;PMS_P2;Temp;Humidity;BMP_temperature;BMP_pressure;BME280_temperature;BME280_humidity;BME280_pressure;Samples;Min_cycle;Max_cycle;Signal;HPM_P1;HPM_P2
2022/12/15 00:39:03;;;;;;;0.10;0.10;;;-1.60;99.90;;;;;;5055321;28;20578;-81
2022/12/15 00:41:29;;;;;;;0.10;0.10;;;-1.80;99.90;;;;;;5067335;28;20210;-80
2022/12/15 00:43:54;;;;;;;0.00;0.00;;;-1.80;99.90;;;;;;5070679;28;20186;-80
2022/12/15 00:50:50;;;;;;;0.10;0.10;;;-1.80;99.90;;;;;;5058913;28;20223;-80
2022/12/15 01:21:56;;;;;;;0.10;0.10;;;-2.00;99.90;;;;;;5058127;28;20290;-80
2022/12/15 01:24:22;;;;;;;0.10;0.10;;;-2.00;99.90;;;;;;5056898;28;20603;-80
2022/12/15 01:26:47;;;;;;;0.10;0.10;;;-1.90;99.90;;;;;;5071870;28;20185;-80
2022/12/15 01:29:13;;;;;;;0.07;0.07;;;-1.90;99.90;;;;;;5057380;28;20248;-80
2022/12/15 01:31:38;;;;;;;0.10;0.10;;;-2.00;99.90;;;;;;5070957;28;20177;-80
2022/12/15 01:34:04;;;;;;;0.00;0.00;;;-2.10;99.90;;;;;;5071742;28;20181;-80
2022/12/15 01:36:30;;;;;;;0.10;0.10;;;-2.20;99.90;;;;;;5072654;28;21214;-81
2022/12/15 01:38:55;;;;;;;0.10;0.10;;;-2.20;99.90;;;;;;5056553;28;20682;-80
2022/12/15 01:41:21;;;;;;;0.10;0.10;;;-2.20;99.90;;;;;;5072334;28;20208;-80
2022/12/15 01:43:47;;;;;;;0.00;0.00;;;-2.10;99.90;;;;;;5058095;28;20628;-80
2022/12/15 01:46:14;;;;;;;0.10;0.10;;;-2.00;99.90;;;;;;5071233;28;20207;-80
2022/12/15 01:48:41;;;;;;;0.10;0.10;;;-1.90;99.90;;;;;;5071456;28;20201;-81
2022/12/15 01:51:09;;;;;;;0.10;0.10;;;-1.80;99.90;;;;;;5071000;28;20186;-81
2022/12/15 01:54:05;;;;;;;0.10;0.10;;;-1.90;99.90;;;;;;5071563;28;20602;-80
2022/12/15 01:56:35;;;;;;;0.10;0.10;;;-1.80;99.90;;;;;;5070395;28;20224;-80
2022/12/15 01:59:03;;;;;;;0.10;0.10;;;-1.70;99.90;;;;;;5070583;28;20691;-80
2022/12/15 02:01:29;;;;;;;0.10;0.10;;;-1.80;99.90;;;;;;5070060;28;20201;-81
2022/12/15 02:03:55;;;;;;;0.10;0.10;;;-1.90;99.90;;;;;;5068946;28;20184;-81
2022/12/15 02:06:21;;;;;;;0.10;0.10;;;-1.90;99.90;;;;;;5057317;28;20199;-80
2022/12/15 02:08:49;;;;;;;0.10;0.10;;;-1.80;99.90;;;;;;5054827;28;20197;-80
2022/12/15 02:11:39;;;;;;;0.10;0.10;;;-1.70;99.90;;;;;;5055449;28;20643;-80
2022/12/15 02:14:07;;;;;;;0.10;0.10;;;-1.60;99.90;;;;;;5055578;28;20525;-81
2022/12/15 02:16:50;;;;;;;0.10;0.10;;;-1.60;99.90;;;;;;5055645;28;20522;-80
2022/12/15 02:19:47;;;;;;;0.10;0.10;;;-1.80;99.90;;;;;;5071785;28;20265;-80
2022/12/15 02:22:34;;;;;;;0.10;0.10;;;-1.70;99.90;;;;;;5070313;28;20177;-80
2022/12/15 02:25:41;;;;;;;0.10;0.10;;;-1.60;99.90;;;;;;5054807;28;20603;-80
2022/12/15 02:28:29;;;;;;;0.10;0.10;;;-1.50;99.90;;;;;;5046904;28;20208;-80
2022/12/15 02:33:59;;;;;;;0.10;0.10;;;-1.60;99.90;;;;;;5057265;28;20258;-80
2022/12/15 02:36:36;;;;;;;0.10;0.10;;;-1.80;99.90;;;;;;5050984;28;20180;-81
2022/12/15 02:39:03;;;;;;;0.10;0.10;;;-2.10;99.90;;;;;;5070312;28;20209;-81
2022/12/15 02:41:41;;;;;;;0.10;0.10;;;-2.30;99.90;;;;;;5071081;28;20224;-80
2022/12/15 02:44:21;;;;;;;0.10;0.10;;;-2.60;99.90;;;;;;5071448;28;20177;-80
2022/12/15 02:47:02;;;;;;;0.10;0.10;;;-2.70;99.90;;;;;;5071649;28;20257;-81
2022/12/15 02:49:30;;;;;;;0.03;0.03;;;-2.80;99.90;;;;;;5070534;28;20202;-80
2022/12/15 02:51:56;;;;;;;0.00;0.00;;;-2.90;99.90;;;;;;5069884;28;20764;-80
2022/12/15 02:54:37;;;;;;;0.10;0.10;;;-2.80;99.90;;;;;;5056430;28;20259;-80
2022/12/15 02:57:41;;;;;;;0.10;0.10;;;-2.70;99.90;;;;;;5053729;28;20204;-79
2022/12/15 03:00:09;;;;;;;0.10;0.10;;;-2.60;99.90;;;;;;5054196;28;20681;-80
2022/12/15 03:02:39;;;;;;;0.10;0.10;;;-2.70;99.90;;;;;;5054175;28;21068;-80
2022/12/15 03:05:06;;;;;;;0.10;0.10;;;-2.60;99.90;;;;;;5056630;28;20183;-80
2022/12/15 03:07:31;;;;;;;0.10;0.10;;;-2.60;99.90;;;;;;5066946;28;20216;-80
2022/12/15 03:09:59;;;;;;;0.10;0.10;;;-2.60;99.90;;;;;;5053735;28;20182;-79
2022/12/15 03:12:26;;;;;;;0.10;0.10;;;-2.60;99.90;;;;;;5052198;28;20671;-80
2022/12/15 03:14:52;;;;;;;0.10;0.10;;;-2.60;99.90;;;;;;5066975;28;20658;-80
2022/12/15 03:17:18;;;;;;;0.10;0.10;;;-2.60;99.90;;;;;;5053339;28;20196;-80
2022/12/15 03:19:44;;;;;;;0.10;0.10;;;-2.60;99.90;;;;;;5052288;28;20197;-80
2022/12/15 03:22:09;;;;;;;0.10;0.10;;;-2.60;99.90;;;;;;5053522;28;20239;-79
2022/12/15 03:24:35;;;;;;;0.10;0.10;;;-2.60;99.90;;;;;;5051660;28;20726;-80
2022/12/15 03:27:00;;;;;;;0.10;0.10;;;-2.50;99.90;;;;;;5050752;28;20655;-80
2022/12/15 03:29:26;;;;;;;0.10;0.10;;;-2.60;99.90;;;;;;5052073;28;21002;-80
2022/12/15 03:31:52;;;;;;;0.03;0.03;;;-2.90;99.90;;;;;;5051783;28;20196;-80
2022/12/15 03:34:17;;;;;;;0.10;0.10;;;-3.00;99.90;;;;;;5068703;28;20204;-79
2022/12/15 03:36:43;;;;;;;0.10;0.10;;;-3.00;99.90;;;;;;5052779;28;20194;-80
2022/12/15 03:39:09;;;;;;;0.10;0.10;;;-3.00;99.90;;;;;;5067815;28;20208;-80
2022/12/15 03:41:34;;;;;;;0.00;0.00;;;-2.90;99.90;;;;;;5053088;28;20210;-79
2022/12/15 03:44:00;;;;;;;0.10;0.10;;;-2.90;99.90;;;;;;5051716;28;20181;-80
2022/12/15 03:46:25;;;;;;;0.00;0.00;;;-2.80;99.90;;;;;;5053123;28;20197;-80
2022/12/15 03:48:52;;;;;;;0.10;0.10;;;-2.80;99.90;;;;;;5068674;28;20221;-79
2022/12/15 03:51:18;;;;;;;0.10;0.10;;;-2.80;99.90;;;;;;5066643;28;20219;-80
2022/12/15 03:53:46;;;;;;;0.10;0.10;;;-2.80;99.90;;;;;;5051631;28;20270;-80
2022/12/15 03:56:12;;;;;;;0.10;0.10;;;-2.80;99.90;;;;;;5066813;28;20194;-80
2022/12/15 03:58:38;;;;;;;0.00;0.00;;;-2.70;99.90;;;;;;5069566;28;20224;-80
2022/12/15 04:01:26;;;;;;;0.10;0.10;;;-2.70;99.90;;;;;;5050838;28;20208;-80
2022/12/15 04:03:52;;;;;;;0.10;0.10;;;-2.90;99.90;;;;;;5068443;28;20272;-80
2022/12/15 04:06:17;;;;;;;0.10;0.10;;;-3.00;99.90;;;;;;5052059;28;20252;-79
2022/12/15 04:08:43;;;;;;;0.10;0.10;;;-2.90;99.90;;;;;;5051633;28;20264;-79
2022/12/15 04:11:08;;;;;;;0.10;0.10;;;-2.80;99.90;;;;;;5051018;28;20185;-82
2022/12/15 04:13:34;;;;;;;0.10;0.10;;;-2.80;99.90;;;;;;5066131;28;20187;-80
2022/12/15 04:16:03;;;;;;;0.10;0.10;;;-2.90;99.90;;;;;;5064828;28;20303;-80
2022/12/15 04:18:29;;;;;;;0.10;0.10;;;-2.90;99.90;;;;;;5052541;28;20209;-79
2022/12/15 04:20:54;;;;;;;0.07;0.07;;;-2.90;99.90;;;;;;5067670;28;20214;-80
2022/12/15 04:23:20;;;;;;;0.10;0.10;;;-2.80;99.90;;;;;;5050832;28;20184;-79
2022/12/15 05:31:51;;;;;;;0.10;0.10;;;-3.10;99.90;;;;;;5055943;28;20676;-80
2022/12/15 05:34:36;;;;;;;0.20;0.20;;;-2.90;99.90;;;;;;5058507;28;20189;-80
2022/12/15 05:37:03;;;;;;;0.10;0.10;;;-2.70;99.90;;;;;;5070168;28;20282;-80
2022/12/15 05:39:29;;;;;;;0.10;0.10;;;-3.10;99.90;;;;;;5071438;28;20209;-79
2022/12/15 05:41:56;;;;;;;0.10;0.10;;;-2.90;99.90;;;;;;5068903;28;20205;-80
2022/12/15 05:44:22;;;;;;;0.10;0.10;;;-2.70;99.90;;;;;;5071814;28;20239;-80
2022/12/15 05:46:48;;;;;;;0.10;0.10;;;-2.60;99.90;;;;;;5071790;28;20181;-79
2022/12/15 05:49:15;;;;;;;0.10;0.10;;;-2.50;99.90;;;;;;5056274;28;20212;-80
2022/12/15 05:51:43;;;;;;;0.10;0.10;;;-2.30;99.90;;;;;;5071579;28;20772;-81
2022/12/15 05:54:11;;;;;;;0.10;0.10;;;-2.60;99.90;;;;;;5056404;28;20181;-80
2022/12/15 05:56:36;;;;;;;0.10;0.10;;;-2.50;99.90;;;;;;5055738;28;20181;-79
2022/12/15 05:59:03;;;;;;;0.20;0.20;;;-2.70;99.90;;;;;;5053078;28;20208;-80
2022/12/15 06:01:30;;;;;;;0.10;0.10;;;-2.50;99.90;;;;;;5060458;28;20570;-81
2022/12/15 06:03:56;;;;;;;0.10;0.10;;;-2.30;99.90;;;;;;5079338;28;20182;-80
2022/12/15 06:06:22;;;;;;;0.10;0.10;;;-2.40;99.90;;;;;;5062534;28;20267;-80
2022/12/15 06:08:48;;;;;;;0.10;0.10;;;-2.70;99.90;;;;;;5073031;28;20300;-81
2022/12/15 06:11:15;;;;;;;0.10;0.10;;;-2.90;99.90;;;;;;5073769;28;20182;-80
2022/12/15 06:13:42;;;;;;;0.10;0.10;;;-2.90;99.90;;;;;;5071148;28;20214;-80
2022/12/15 06:16:11;;;;;;;0.10;0.10;;;-2.90;99.90;;;;;;5056518;28;20180;-79
2022/12/15 06:18:39;;;;;;;0.10;0.10;;;-2.90;99.90;;;;;;5056925;28;20270;-80
2022/12/15 06:21:08;;;;;;;0.10;0.10;;;-2.90;99.90;;;;;;5056330;28;20234;-80
2022/12/15 06:23:34;;;;;;;0.10;0.10;;;-2.90;99.90;;;;;;5069558;28;20177;-79
2022/12/15 06:26:20;;;;;;;0.10;0.10;;;-2.80;99.90;;;;;;5070824;28;20186;-78
2022/12/15 06:28:47;;;;;;;0.10;0.10;;;-2.70;99.90;;;;;;5070682;28;20856;-79
2022/12/15 06:31:13;;;;;;;0.00;0.00;;;-2.70;99.90;;;;;;5055898;28;20181;-79
2022/12/15 06:33:39;;;;;;;0.10;0.10;;;-2.80;99.90;;;;;;5056514;28;20336;-80
2022/12/15 06:36:08;;;;;;;0.10;0.10;;;-3.00;99.90;;;;;;5054475;28;20665;-79
2022/12/15 06:38:35;;;;;;;0.10;0.10;;;-3.10;99.90;;;;;;5070630;28;20577;-80
2022/12/15 06:41:02;;;;;;;0.10;0.10;;;-3.10;99.90;;;;;;5054639;28;20571;-79
2022/12/15 06:43:29;;;;;;;0.10;0.10;;;-3.10;99.90;;;;;;5070187;28;20189;-79
2022/12/15 06:45:55;;;;;;;0.07;0.07;;;-3.10;99.90;;;;;;5070161;28;20730;-80
2022/12/15 06:48:22;;;;;;;0.10;0.10;;;-3.10;99.90;;;;;;5069738;28;20315;-80
2022/12/15 06:50:48;;;;;;;0.10;0.10;;;-3.10;99.90;;;;;;5068429;28;20196;-82
2022/12/15 06:53:16;;;;;;;0.10;0.10;;;-3.10;99.90;;;;;;5066304;28;20734;-82
2022/12/15 06:55:42;;;;;;;0.10;0.10;;;-3.10;99.90;;;;;;5069394;28;20213;-79
2022/12/15 06:58:08;;;;;;;0.10;0.10;;;-3.60;99.90;;;;;;5051581;28;20215;-80
2022/12/15 07:00:35;;;;;;;0.20;0.20;;;-3.80;99.90;;;;;;5067926;28;20868;-80
2022/12/15 07:03:01;;;;;;;0.10;0.10;;;-3.90;99.90;;;;;;5048745;28;20788;-80
2022/12/15 07:05:27;;;;;;;0.10;0.10;;;-3.90;99.90;;;;;;5050368;28;20188;-81
2022/12/15 07:07:52;;;;;;;0.10;0.10;;;-4.00;99.90;;;;;;5051366;28;20565;-80
2022/12/15 07:10:18;;;;;;;0.03;0.03;;;-4.00;99.90;;;;;;5067912;28;20196;-81
2022/12/15 07:12:45;;;;;;;0.00;0.00;;;-3.90;99.90;;;;;;5054118;28;20657;-81
2022/12/15 07:15:10;;;;;;;0.10;0.10;;;-3.80;99.90;;;;;;5068476;28;20841;-80
2022/12/15 07:17:36;;;;;;;0.10;0.10;;;-3.90;99.90;;;;;;5052459;28;20201;-81
2022/12/15 07:20:05;;;;;;;0.10;0.10;;;-3.80;99.90;;;;;;5067362;28;20704;-80
2022/12/15 07:22:31;;;;;;;0.10;0.10;;;-4.00;99.90;;;;;;5050762;28;20185;-79
2022/12/15 07:24:57;;;;;;;0.10;0.10;;;-4.30;99.90;;;;;;5068172;28;20274;-81
2022/12/15 07:27:23;;;;;;;0.10;0.10;;;-4.50;99.90;;;;;;5066894;28;20219;-80
2022/12/15 07:29:48;;;;;;;0.10;0.10;;;-4.60;99.90;;;;;;5067244;28;20249;-80
2022/12/15 07:32:14;;;;;;;0.10;0.10;;;-4.60;99.90;;;;;;5053404;28;20192;-79
2022/12/15 07:34:40;;;;;;;0.10;0.10;;;-4.60;99.90;;;;;;5054185;28;20219;-80
2022/12/15 07:37:06;;;;;;;0.10;0.10;;;-4.70;99.90;;;;;;5068002;28;20179;-80
2022/12/15 07:39:31;;;;;;;0.10;0.10;;;-4.60;99.90;;;;;;5066360;28;20208;-81
2022/12/15 07:41:57;;;;;;;0.10;0.10;;;-4.50;99.90;;;;;;5050697;28;20241;-80
2022/12/15 07:44:22;;;;;;;0.10;0.10;;;-4.40;99.90;;;;;;5048817;28;20227;-81
2022/12/15 07:46:48;;;;;;;0.10;0.10;;;-4.10;99.90;;;;;;5065881;28;20186;-81
2022/12/15 07:49:16;;;;;;;0.10;0.10;;;-3.90;99.90;;;;;;5051322;28;20209;-81
2022/12/15 07:51:41;;;;;;;0.00;0.00;;;-3.80;99.90;;;;;;5067380;28;20254;-80
2022/12/15 07:54:11;;;;;;;0.10;0.10;;;-3.60;99.90;;;;;;5064631;28;20196;-80
2022/12/15 07:56:38;;;;;;;0.10;0.10;;;-3.60;99.90;;;;;;5051803;28;20187;-79
2022/12/15 07:59:04;;;;;;;0.10;0.10;;;-3.50;99.90;;;;;;5052093;28;20312;-80
2022/12/15 08:01:30;;;;;;;0.10;0.10;;;-3.30;99.90;;;;;;5052463;28;20213;-80
2022/12/15 08:03:56;;;;;;;0.10;0.10;;;-3.20;99.90;;;;;;5052485;28;20246;-83
2022/12/15 08:06:21;;;;;;;0.10;0.10;;;-3.00;99.90;;;;;;5050488;28;20196;-80
2022/12/15 08:08:47;;;;;;;0.00;0.00;;;-2.90;99.90;;;;;;5051611;28;20208;-80
2022/12/15 08:11:15;;;;;;;0.10;0.10;;;-3.20;99.90;;;;;;5067218;28;20262;-81
2022/12/15 08:13:42;;;;;;;0.10;0.10;;;-3.10;99.90;;;;;;5049957;28;20192;-80
2022/12/15 08:16:09;;;;;;;0.10;0.10;;;-3.30;99.90;;;;;;5068209;28;20203;-79
2022/12/15 08:18:35;;;;;;;0.10;0.10;;;-3.20;99.90;;;;;;5068401;28;20206;-80
2022/12/15 08:21:09;;;;;;;0.10;0.10;;;-3.00;99.90;;;;;;5054051;28;20219;-80
2022/12/15 08:23:36;;;;;;;0.10;0.10;;;-2.70;99.90;;;;;;5068706;28;20654;-81
2022/12/15 08:26:03;;;;;;;0.10;0.10;;;-2.50;99.90;;;;;;5052015;28;20184;-81
2022/12/15 08:28:29;;;;;;;0.10;0.10;;;-2.60;99.90;;;;;;5053088;28;20287;-81
2022/12/15 08:30:54;;;;;;;0.10;0.10;;;-2.60;99.90;;;;;;5054445;28;21133;-80
2022/12/15 08:33:20;;;;;;;0.00;0.00;;;-2.60;99.90;;;;;;5049564;28;20193;-80
2022/12/15 08:35:46;;;;;;;0.00;0.00;;;-2.50;99.90;;;;;;5066525;28;20203;-80
2022/12/15 08:38:11;;;;;;;0.10;0.10;;;-2.50;99.90;;;;;;5046151;28;20358;-81
2022/12/15 08:40:37;;;;;;;0.10;0.10;;;-2.50;99.90;;;;;;5065621;28;20802;-81
2022/12/15 08:43:03;;;;;;;0.10;0.10;;;-2.40;99.90;;;;;;5050875;28;20181;-81
2022/12/15 08:45:28;;;;;;;0.10;0.10;;;-2.30;99.90;;;;;;5051658;28;20226;-80
2022/12/15 08:47:55;;;;;;;0.10;0.10;;;-2.30;99.90;;;;;;5050842;28;20312;-81
2022/12/15 08:50:21;;;;;;;0.00;0.00;;;-2.50;99.90;;;;;;5058996;28;20201;-81
2022/12/15 08:52:46;;;;;;;0.10;0.10;;;-2.30;99.90;;;;;;5073235;28;20196;-80
2022/12/15 08:55:12;;;;;;;0.10;0.10;;;-2.20;99.90;;;;;;5075590;28;20217;-81
2022/12/15 08:57:39;;;;;;;0.10;0.10;;;-2.00;99.90;;;;;;5071980;28;20236;-79
2022/12/15 09:00:05;;;;;;;0.10;0.10;;;-2.00;99.90;;;;;;5066494;28;20238;-80
2022/12/15 09:02:31;;;;;;;0.07;0.07;;;-2.20;99.90;;;;;;5063631;28;20192;-80
2022/12/15 09:04:56;;;;;;;0.10;0.10;;;-2.40;99.90;;;;;;5051975;28;20177;-81
2022/12/15 09:07:22;;;;;;;0.00;0.00;;;-2.20;99.90;;;;;;5068818;28;20186;-82
2022/12/15 09:09:47;;;;;;;0.10;0.10;;;-2.20;99.90;;;;;;5056122;28;20187;-82
2022/12/15 09:12:13;;;;;;;0.10;0.10;;;-2.10;99.90;;;;;;5057056;28;20192;-81
2022/12/15 09:14:39;;;;;;;0.10;0.10;;;-1.90;99.90;;;;;;5069076;28;20188;-81
2022/12/15 09:17:04;;;;;;;0.10;0.10;;;-1.70;99.90;;;;;;5072121;28;20188;-81
2022/12/15 09:19:30;;;;;;;0.10;0.10;;;-1.50;99.90;;;;;;5054584;28;20631;-81
2022/12/15 09:21:55;;;;;;;0.10;0.10;;;-1.90;99.90;;;;;;5071525;28;20214;-82
2022/12/15 09:24:23;;;;;;;0.10;0.10;;;-1.70;99.90;;;;;;5072866;28;20694;-82
2022/12/15 09:26:48;;;;;;;0.00;0.00;;;-1.50;99.90;;;;;;5071746;28;21215;-82
2022/12/15 09:29:17;;;;;;;0.10;0.10;;;-1.50;99.90;;;;;;5073123;28;20205;-82
2022/12/15 09:31:45;;;;;;;0.10;0.10;;;-1.30;99.90;;;;;;5069463;28;20328;-82
2022/12/15 09:34:14;;;;;;;0.13;0.13;;;-1.30;99.90;;;;;;5070687;28;20280;-81
2022/12/15 09:36:39;;;;;;;0.07;0.07;;;-1.20;99.90;;;;;;5069937;28;20193;-82
2022/12/15 09:39:05;;;;;;;0.10;0.10;;;-1.30;99.90;;;;;;5071219;28;20213;-82
2022/12/15 09:41:33;;;;;;;0.10;0.10;;;-1.40;99.90;;;;;;5054853;28;20709;-82
2022/12/15 09:44:20;;;;;;;0.03;0.03;;;-1.30;99.90;;;;;;5056627;28;20186;-82
2022/12/15 09:47:14;;;;;;;0.10;0.10;;;-1.40;99.90;;;;;;5055728;28;20216;-82
2022/12/15 09:49:55;;;;;;;0.03;0.03;;;-1.20;99.90;;;;;;5069446;28;20232;-82
2022/12/15 09:52:30;;;;;;;0.10;0.10;;;-1.40;99.90;;;;;;5057310;28;20184;-82
2022/12/15 09:54:57;;;;;;;0.10;0.10;;;-1.30;99.90;;;;;;5054274;28;20921;-80
2022/12/15 09:57:25;;;;;;;0.10;0.10;;;-1.50;99.90;;;;;;5051860;28;20284;-81
2022/12/15 10:00:00;;;;;;;0.10;0.10;;;-1.70;99.90;;;;;;5069703;28;20737;-80
2022/12/15 10:02:47;;;;;;;0.10;0.10;;;-1.40;99.90;;;;;;5051594;28;20237;-81
2022/12/15 10:05:31;;;;;;;0.10;0.10;;;-1.30;99.90;;;;;;5055652;28;20741;-80
2022/12/15 10:07:58;;;;;;;0.00;0.00;;;-1.00;99.90;;;;;;5067512;28;20197;-80
2022/12/15 10:10:58;;;;;;;0.10;0.10;;;-0.90;99.90;;;;;;5051395;28;20193;-80
2022/12/15 10:13:27;;;;;;;0.10;0.10;;;-0.70;99.90;;;;;;5045934;28;20232;-80
2022/12/15 10:16:02;;;;;;;0.10;0.10;;;-0.60;99.90;;;;;;5052952;28;20189;-80
2022/12/15 10:18:49;;;;;;;0.10;0.10;;;-0.50;99.90;;;;;;5066012;28;20229;-81
2022/12/15 10:21:14;;;;;;;0.07;0.07;;;-0.40;99.90;;;;;;5052133;28;20209;-81
2022/12/15 10:23:40;;;;;;;0.10;0.10;;;-0.20;99.90;;;;;;5066623;28;20598;-81
2022/12/15 10:26:22;;;;;;;0.10;0.10;;;0.10;99.90;;;;;;5070131;28;20650;-81
2022/12/15 10:28:56;;;;;;;0.10;0.10;;;0.40;99.90;;;;;;5068780;28;20216;-81
2022/12/15 10:31:48;;;;;;;0.10;0.10;;;0.50;99.90;;;;;;5053842;28;20273;-81
2022/12/15 10:34:25;;;;;;;0.00;0.00;;;0.60;99.90;;;;;;5054096;28;20189;-81
2022/12/15 10:36:52;;;;;;;0.10;0.10;;;0.60;99.90;;;;;;5052080;28;21081;-82
2022/12/15 10:39:19;;;;;;;0.10;0.10;;;0.40;99.90;;;;;;5052633;28;20678;-82
2022/12/15 10:41:45;;;;;;;0.10;0.10;;;0.30;99.90;;;;;;5070028;28;20209;-82
2022/12/15 10:44:24;;;;;;;0.10;0.10;;;0.10;99.90;;;;;;5069381;28;20216;-83
2022/12/15 10:46:54;;;;;;;0.10;0.10;;;0.20;99.90;;;;;;5055445;28;20181;-83
2022/12/15 10:49:22;;;;;;;0.03;0.03;;;0.40;99.90;;;;;;5068146;28;20933;-83
2022/12/15 10:51:52;;;;;;;0.10;0.10;;;0.60;99.90;;;;;;5067217;28;20673;-82
2022/12/15 10:54:17;;;;;;;0.00;0.00;;;0.40;99.90;;;;;;5065972;28;20219;-83
2022/12/15 10:56:53;;;;;;;0.10;0.10;;;0.40;99.90;;;;;;5069368;28;20224;-82
2022/12/15 10:59:32;;;;;;;0.10;0.10;;;0.00;99.90;;;;;;5067840;28;20205;-82
2022/12/15 11:02:19;;;;;;;0.10;0.10;;;-0.20;99.90;;;;;;5052452;28;20240;-82
2022/12/15 11:05:10;;;;;;;0.10;0.10;;;-0.40;99.90;;;;;;5068488;28;20285;-83
2022/12/15 11:07:50;;;;;;;0.10;0.10;;;-1.10;99.90;;;;;;5051035;28;20227;-83
2022/12/15 11:13:27;;;;;;;0.10;0.10;;;-0.10;99.90;;;;;;5053719;28;20286;-82
2022/12/15 11:15:55;;;;;;;0.00;0.00;;;-0.10;99.90;;;;;;5070843;28;20186;-83
2022/12/15 11:18:27;;;;;;;0.10;0.10;;;0.10;99.90;;;;;;5053282;28;20205;-82
2022/12/15 11:21:03;;;;;;;0.10;0.10;;;0.40;99.90;;;;;;5052193;28;20201;-82
2022/12/15 11:23:56;;;;;;;0.10;0.10;;;0.70;99.90;;;;;;5052729;28;20170;-83
2022/12/15 11:26:47;;;;;;;0.10;0.10;;;0.70;99.90;;;;;;5052513;28;20224;-83
2022/12/15 11:29:19;;;;;;;0.10;0.10;;;0.90;99.90;;;;;;5069635;28;20266;-82
2022/12/15 11:31:47;;;;;;;0.10;0.10;;;1.10;99.90;;;;;;5067801;28;20204;-82
2022/12/15 11:34:37;;;;;;;0.10;0.10;;;1.30;99.90;;;;;;5053427;28;20319;-81
2022/12/15 11:37:15;;;;;;;0.30;0.30;;;1.30;99.90;;;;;;5084231;28;20360;-82
2022/12/15 11:40:00;;;;;;;0.10;0.10;;;1.00;99.90;;;;;;5074005;28;20203;-83
2022/12/15 11:42:55;;;;;;;0.10;0.10;;;0.70;99.90;;;;;;5075964;28;20197;-83
2022/12/15 11:45:38;;;;;;;0.10;0.10;;;0.60;99.90;;;;;;5042386;28;20198;-83
2022/12/15 11:48:09;;;;;;;0.10;0.10;;;0.80;99.90;;;;;;5052986;28;20705;-82
2022/12/15 11:51:00;;;;;;;0.00;0.00;;;0.90;99.90;;;;;;5066109;28;20178;-82
2022/12/15 11:53:26;;;;;;;0.10;0.10;;;0.60;99.90;;;;;;5066927;28;20181;-82
2022/12/15 11:56:02;;;;;;;0.10;0.10;;;0.50;99.90;;;;;;5064577;28;20693;-81
2022/12/15 11:59:02;;;;;;;0.00;0.00;;;0.90;99.90;;;;;;5065162;28;20224;-81
2022/12/15 12:01:55;;;;;;;0.10;0.10;;;1.20;99.90;;;;;;5064778;28;20211;-81
2022/12/15 12:04:34;;;;;;;0.10;0.10;;;1.50;99.90;;;;;;5052799;28;20204;-81
2022/12/15 12:07:14;;;;;;;0.00;0.00;;;1.70;99.90;;;;;;5050909;28;20186;-81
2022/12/15 12:10:00;;;;;;;0.07;0.07;;;2.00;99.90;;;;;;5049462;28;20171;-80
2022/12/15 12:12:31;;;;;;;0.10;0.10;;;2.10;99.90;;;;;;5048507;28;20179;-81
2022/12/15 12:15:16;;;;;;;0.10;0.10;;;2.30;99.90;;;;;;5065896;28;20189;-80
2022/12/15 12:17:52;;;;;;;0.00;0.00;;;2.40;99.90;;;;;;5066801;28;20738;-81
2022/12/15 12:20:43;;;;;;;0.00;0.00;;;1.80;99.90;;;;;;5048994;28;20232;-81
2022/12/15 12:23:18;;;;;;;0.10;0.10;;;1.90;99.90;;;;;;5050912;28;20185;-81
2022/12/15 12:26:04;;;;;;;0.10;0.10;;;1.90;99.90;;;;;;5066088;28;20193;-81
2022/12/15 12:29:05;;;;;;;0.10;0.10;;;2.10;99.90;;;;;;5050694;28;20202;-80
2022/12/15 12:31:45;;;;;;;0.10;0.10;;;2.30;99.90;;;;;;5049212;28;20202;-80
2022/12/15 12:34:16;;;;;;;0.10;0.10;;;1.40;99.90;;;;;;5066450;28;20190;-81
2022/12/15 12:36:43;;;;;;;0.10;0.10;;;1.50;99.90;;;;;;5049775;28;20565;-80
2022/12/15 12:39:18;;;;;;;0.00;0.00;;;1.50;99.90;;;;;;5067050;28;20255;-81
2022/12/15 12:42:05;;;;;;;0.10;0.10;;;1.30;99.90;;;;;;5055929;28;20213;-81
2022/12/15 12:44:35;;;;;;;0.10;0.10;;;1.20;99.90;;;;;;5056364;28;20180;-81
2022/12/15 12:47:15;;;;;;;0.10;0.10;;;1.80;99.90;;;;;;5054267;28;20652;-81
2022/12/15 12:49:47;;;;;;;0.00;0.00;;;2.10;99.90;;;;;;5053671;28;20196;-81
2022/12/15 12:52:24;;;;;;;0.10;0.10;;;2.10;99.90;;;;;;5054455;28;20202;-81
2022/12/15 12:55:00;;;;;;;0.10;0.10;;;1.50;99.90;;;;;;5052426;28;20733;-81
2022/12/15 12:57:40;;;;;;;0.00;0.00;;;1.00;99.90;;;;;;5057684;28;20680;-80
2022/12/15 13:00:24;;;;;;;0.10;0.10;;;0.90;99.90;;;;;;5054275;28;20212;-81
2022/12/15 13:02:56;;;;;;;0.10;0.10;;;1.00;99.90;;;;;;5071272;28;20189;-81
2022/12/15 13:05:34;;;;;;;0.10;0.10;;;1.00;99.90;;;;;;5070441;28;20851;-81
2022/12/15 13:08:05;;;;;;;0.00;0.00;;;1.40;99.90;;;;;;5067656;28;20257;-81
2022/12/15 13:10:35;;;;;;;0.10;0.10;;;1.30;99.90;;;;;;5054642;28;20190;-81
2022/12/15 13:13:15;;;;;;;0.10;0.10;;;1.50;99.90;;;;;;5053712;28;20192;-80
2022/12/15 13:15:46;;;;;;;0.10;0.10;;;1.80;99.90;;;;;;5069052;28;20180;-80
2022/12/15 13:18:11;;;;;;;0.10;0.10;;;2.10;99.90;;;;;;5055984;28;20216;-81
2022/12/15 13:20:38;;;;;;;0.10;0.10;;;2.10;99.90;;;;;;5067196;28;20212;-80
2022/12/15 13:23:22;;;;;;;0.10;0.10;;;2.30;99.90;;;;;;5056977;28;20187;-80
2022/12/15 13:25:56;;;;;;;0.10;0.10;;;2.40;99.90;;;;;;5071847;28;20231;-81
2022/12/15 13:28:29;;;;;;;0.10;0.10;;;2.40;99.90;;;;;;5071199;28;20197;-80
2022/12/15 13:31:20;;;;;;;0.10;0.10;;;2.30;99.90;;;;;;5069466;28;20241;-81
2022/12/15 13:34:00;;;;;;;0.10;0.10;;;2.10;99.90;;;;;;5071830;28;20221;-81
2022/12/15 13:36:41;;;;;;;0.10;0.10;;;2.00;99.90;;;;;;5067886;28;20183;-81
2022/12/15 13:39:16;;;;;;;0.10;0.10;;;2.00;99.90;;;;;;5048436;28;20208;-82
2022/12/15 13:41:41;;;;;;;0.10;0.10;;;1.60;99.90;;;;;;5057305;28;20571;-81
2022/12/15 13:44:50;;;;;;;0.00;0.00;;;1.50;99.90;;;;;;5065433;28;20180;-80
2022/12/15 13:47:22;;;;;;;0.10;0.10;;;1.40;99.90;;;;;;5067714;28;20184;-80
2022/12/15 13:49:57;;;;;;;0.10;0.10;;;0.90;99.90;;;;;;5050507;28;20237;-80
2022/12/15 13:52:22;;;;;;;0.10;0.10;;;0.60;99.90;;;;;;5052251;28;20181;-81
2022/12/15 13:54:59;;;;;;;0.10;0.10;;;0.10;99.90;;;;;;5067869;28;20727;-80
2022/12/15 13:57:28;;;;;;;0.00;0.00;;;-0.20;99.90;;;;;;5050800;28;20200;-80
2022/12/15 14:00:06;;;;;;;0.10;0.10;;;-0.10;99.90;;;;;;5054327;28;20189;-81
2022/12/15 14:02:33;;;;;;;0.10;0.10;;;-0.20;99.90;;;;;;5069904;28;20181;-80
2022/12/15 14:05:17;;;;;;;0.10;0.10;;;0.00;99.90;;;;;;5067526;28;20192;-80
2022/12/15 14:07:57;;;;;;;0.10;0.10;;;0.00;99.90;;;;;;5051149;28;20297;-85
2022/12/15 14:10:27;;;;;;;0.10;0.10;;;-0.10;99.90;;;;;;5053735;28;20666;-81
2022/12/15 14:12:56;;;;;;;0.00;0.00;;;-0.20;99.90;;;;;;5066303;28;20240;-81
2022/12/15 14:15:31;;;;;;;0.10;0.10;;;-0.40;99.90;;;;;;5066984;28;20198;-81
2022/12/15 14:17:59;;;;;;;0.10;0.10;;;-0.40;99.90;;;;;;5066904;28;20705;-80
2022/12/15 14:20:30;;;;;;;0.00;0.00;;;-0.40;99.90;;;;;;5051654;28;20198;-80
2022/12/15 14:22:57;;;;;;;0.10;0.10;;;-0.40;99.90;;;;;;5068107;28;20225;-80
2022/12/15 14:25:28;;;;;;;0.10;0.10;;;-0.40;99.90;;;;;;5066207;28;21177;-80
2022/12/15 14:27:55;;;;;;;0.10;0.10;;;-0.40;99.90;;;;;;5052031;28;20206;-81
2022/12/15 14:30:34;;;;;;;0.10;0.10;;;-0.50;99.90;;;;;;5052875;28;22681;-81
2022/12/15 14:33:12;;;;;;;0.10;0.10;;;-0.60;99.90;;;;;;5068691;28;20208;-80
2022/12/15 14:35:42;;;;;;;0.10;0.10;;;-0.60;99.90;;;;;;5052518;28;20177;-80
2022/12/15 14:38:23;;;;;;;0.00;0.00;;;-0.80;99.90;;;;;;5051766;28;20220;-80
2022/12/15 14:40:51;;;;;;;0.10;0.10;;;-0.80;99.90;;;;;;5047430;28;20205;-80
2022/12/15 14:43:23;;;;;;;0.10;0.10;;;-0.90;99.90;;;;;;5048630;28;21007;-81
2022/12/15 14:45:54;;;;;;;0.10;0.10;;;-1.00;99.90;;;;;;5049091;28;20183;-81
2022/12/15 14:48:30;;;;;;;0.00;0.00;;;-1.30;99.90;;;;;;5084928;28;20205;-80
2022/12/15 14:51:01;;;;;;;0.10;0.10;;;-1.20;99.90;;;;;;5051599;28;20235;-80
2022/12/15 14:53:33;;;;;;;0.10;0.10;;;-1.20;99.90;;;;;;5067368;28;20643;-80
2022/12/15 14:56:31;;;;;;;0.27;0.27;;;-1.10;99.90;;;;;;5069859;28;20183;-80
2022/12/15 14:59:15;;;;;;;0.10;0.10;;;-1.40;99.90;;;;;;5052849;28;20218;-80
2022/12/15 15:02:01;;;;;;;0.10;0.10;;;-1.50;99.90;;;;;;5052532;28;20482;-80
2022/12/15 15:04:32;;;;;;;0.10;0.10;;;-1.50;99.90;;;;;;5069875;28;20243;-81
2022/12/15 15:07:20;;;;;;;0.10;0.10;;;-1.50;99.90;;;;;;5055040;28;20705;-81
2022/12/15 15:09:46;;;;;;;0.10;0.10;;;-1.60;99.90;;;;;;5054774;28;20254;-81
2022/12/15 15:12:18;;;;;;;0.10;0.10;;;-1.60;99.90;;;;;;5069856;28;20208;-80
2022/12/15 15:14:45;;;;;;;0.10;0.10;;;-1.60;99.90;;;;;;5051473;28;20189;-81
2022/12/15 15:17:21;;;;;;;0.10;0.10;;;-1.70;99.90;;;;;;5071726;28;20181;-80
2022/12/15 15:19:59;;;;;;;0.10;0.10;;;-1.80;99.90;;;;;;5051959;28;20185;-81
2022/12/15 15:22:34;;;;;;;0.10;0.10;;;-1.80;99.90;;;;;;5052554;28;20271;-80
2022/12/15 15:24:59;;;;;;;0.10;0.10;;;-1.80;99.90;;;;;;5069005;28;20287;-80
2022/12/15 15:27:36;;;;;;;0.10;0.10;;;-1.80;99.90;;;;;;5070211;28;20265;-81
2022/12/15 15:30:22;;;;;;;0.10;0.10;;;-1.80;99.90;;;;;;5055756;28;20181;-80
2022/12/15 15:32:58;;;;;;;0.10;0.10;;;-1.80;99.90;;;;;;5052462;28;20186;-80
2022/12/15 15:35:33;;;;;;;0.10;0.10;;;-1.90;99.90;;;;;;5052339;28;20177;-80
2022/12/15 15:38:37;;;;;;;0.00;0.00;;;-1.90;99.90;;;;;;5053114;28;20610;-80